Search for airport 
image banner adimage banner adimage banner ad
image banner ad

EVGA - Lielvarde (Mil)

Located in Lielvarde, Latvia

ICAO - EVGA, IATA -

Data provided by Airmate  

General information

Coordinates: N56°46'45" E24°51'14"
Elevation is 207 feet MSL.
Magnetic variation is 8° East
View others Airports in Ogre District

Operational data

Special qualification required
Current time UTC:
Current local time:
Weather at : EVRA - Riga ( 56 km )
METAR: EVRA 291450Z 32011KT 290V350 9999 FEW050CB 24/16 Q1004 NOSIG
TAF: TAF EVRA 291101Z 2912/3012 22009KT 9999 SCT030 TEMPO 2912/2918 SCT040CB PROB40 TEMPO 2923/3005 SCT040CB TEMPO 3006/3009 SCT030CB TEMPO 3011/3012 22020G30KT
View NOTAMs / SUP AIP / TFR affecting this airport [VIEW]
Communications frequencies: [VIEW]

Runways:

RWY identifierQFULength (ft)Width (ft)SurfaceLDA (ft)
18187°8202148CONC+ASPH8202
368202148CONC+ASPH8202

Airport contact information

Address: Lielvarde Latvia

Satellite view of EVGA